Portada
METAR-TAF:

METAR-TAF

Aeroports :

Natal, Rio Grande do Norte, Brasil

latitud: 05-46-05S, longitud: 035-22-34W, altitud: 88 m

Observació

L'informe es va fer fa 11 minuts, a les 15:00 UTC
Vent 14 kt del Sud amb ràfegues de 24 kt, variant entre Sud/Sud-Est i Sud/Sud-Oest
Temperatura 29°C
Humitat 55%
Pressió 1018 hPa
Visibilitat 10 km o més
Cel ennuvolat a una alçada de 3300 ft

METAR: SBSG 171500Z 17014G24KT 150V210 9999 BKN033 29/19 Q1018

Hora: 12:11 (15:11 UTC)

Pronòstic

L'informe es va fer fa 5 hores i 11 minuts, a les 10:00 UTC
Pronòstic vàlid del 17 a les 12 UTC al 18 a les 12 UTC
Vent 13 kt del Sud/Sud-Est
Visibilitat 10 km o més
Núvols disperses a una alçada de 2500 ft
Evolucionant progressivament
l' 17 a les 21 UTC al 17 a les 23 UTC
Vent 7 kt del Sud/Sud-Oest

TAF: SBSG 171000Z 1712/1812 16013KT 9999 SCT025 TX29/1716Z TN22/1808Z BECMG 1721/1723 20007KT RMK PCH

Observacions i pronòstics meteorològics de més de 4000 aeroports (METAR i TAF).

Les estacions disponibles són els punts grocs i vermells al mapa.

Posi el ratolí al punt desitjat per veure el nom de l'estació.

Feu clic per veure les observacions i els pronòstics meteorològics.

Per canviar el mapa: feu clic els botons verds amb una creu de color negre per apropar; al botó verd amb un guió per allunyar la imatge; o en les fletxes verdes per a mapes adjacents.


METAR-TAF: